Palestine, North Carolina
Current Conditions -  °F | °C
As of 8:15 AM on Thursday 30 Oct 2014 (Local Time) from KVUJ Reporting Station
Clear Clear  
Wind Chill: 45°   Ceiling: Unl
Heat Index: 45°   Visibility: 10mi
Dew Point: 44°   Wind: 0mph
Humidity: 97%   Direction: NA
Pressure: 30.1"   Gusts: NA
Location:  35.3503°N, 80.2174°W
Report Text: KVUJ 301215Z AUTO 00000KT 10SM CLR 07/07 A3010 RMK AO2 T00740069
Loading
Personal Weather Stations






























Interactive Weather Map
Tropical Storm Tracking
New forecast layout! Learn more

10-Day Weather Forecast

Advertisements
Track Severe Weather on mobile